createdAt,value
2022-08-22T00:01:28.774Z,4.27
2022-08-22T00:02:42.952Z,7.30
2022-08-22T00:03:00.777Z,5.93
2022-08-22T00:03:08.057Z,9.00
2022-08-22T00:04:03.031Z,4.20
2022-08-22T00:06:37.194Z,3.60
2022-08-22T00:09:12.445Z,3.87
2022-08-22T00:11:46.446Z,4.57
2022-08-22T00:14:18.291Z,4.10
2022-08-22T00:16:49.385Z,4.13
2022-08-22T00:19:23.779Z,5.60
2022-08-22T00:21:57.579Z,4.97
2022-08-22T00:24:28.732Z,4.03
2022-08-22T00:27:00.159Z,4.40
2022-08-22T00:29:31.609Z,4.20
2022-08-22T00:32:04.861Z,4.67
2022-08-22T00:34:35.450Z,4.07
2022-08-22T00:37:07.706Z,4.30
2022-08-22T00:39:39.392Z,4.50
2022-08-22T00:42:15.990Z,5.57
2022-08-22T00:45:12.430Z,4.00
2022-08-22T00:47:50.634Z,3.87
2022-08-22T00:50:36.559Z,4.20
2022-08-22T00:53:12.489Z,3.90
2022-08-22T00:55:47.351Z,4.30
2022-08-22T00:58:29.983Z,4.20
2022-08-22T01:01:00.881Z,4.77
2022-08-22T01:03:49.408Z,4.77
2022-08-22T01:06:23.479Z,4.23
2022-08-22T01:08:59.595Z,4.37
2022-08-22T01:11:42.993Z,4.93
2022-08-22T01:14:20.719Z,4.37
2022-08-22T01:17:20.403Z,5.00
2022-08-22T01:20:08.862Z,4.77
2022-08-22T01:22:58.870Z,4.83
2022-08-22T01:25:51.117Z,4.57
2022-08-22T01:28:38.040Z,4.90
2022-08-22T01:31:24.134Z,4.50
2022-08-22T01:34:17.011Z,4.60
2022-08-22T01:36:53.158Z,5.40
2022-08-22T01:39:30.198Z,4.60
2022-08-22T01:42:09.485Z,4.70
2022-08-22T01:44:45.566Z,4.60
2022-08-22T01:47:14.679Z,4.97
2022-08-22T01:49:45.643Z,4.60
2022-08-22T01:52:15.855Z,5.50
2022-08-22T01:54:50.689Z,5.37
2022-08-22T01:57:19.269Z,4.83
2022-08-22T01:59:47.619Z,4.60
2022-08-22T02:02:21.610Z,4.93
2022-08-22T02:04:56.096Z,5.23
2022-08-22T02:07:31.761Z,5.27
2022-08-22T02:10:08.822Z,4.97
2022-08-22T02:13:03.127Z,4.40
2022-08-22T02:15:36.414Z,5.13
2022-08-22T02:18:12.493Z,4.97
2022-08-22T02:20:44.677Z,5.17
2022-08-22T02:23:18.799Z,4.97
2022-08-22T02:25:51.894Z,5.10
2022-08-22T02:28:28.493Z,5.27
2022-08-22T02:31:01.235Z,4.87
2022-08-22T02:33:32.763Z,5.20
2022-08-22T02:36:07.842Z,5.03
2022-08-22T02:38:39.799Z,5.00
2022-08-22T02:41:11.771Z,5.00
2022-08-22T02:43:44.258Z,5.73
2022-08-22T02:46:18.337Z,5.87
2022-08-22T02:48:49.385Z,5.30
2022-08-22T02:51:22.685Z,5.07
2022-08-22T02:53:52.489Z,5.30
2022-08-22T02:56:22.805Z,5.40
2022-08-22T02:58:52.646Z,5.83
2022-08-22T03:01:25.363Z,5.20
2022-08-22T03:03:54.002Z,6.40
2022-08-22T03:06:33.004Z,5.97
2022-08-22T03:09:03.229Z,5.73
2022-08-22T03:11:33.658Z,5.50
2022-08-22T03:14:04.429Z,5.70
2022-08-22T03:16:35.475Z,5.50
2022-08-22T03:19:05.366Z,6.10
2022-08-22T03:21:57.909Z,5.67
2022-08-22T03:24:30.247Z,5.83
2022-08-22T03:27:02.004Z,5.47
2022-08-22T03:29:33.123Z,5.87
2022-08-22T03:32:08.793Z,5.80
2022-08-22T03:34:37.412Z,5.70
2022-08-22T03:37:08.662Z,5.87
2022-08-22T03:39:43.919Z,6.00
2022-08-22T03:42:22.268Z,5.63
2022-08-22T03:44:59.759Z,5.80
2022-08-22T03:47:33.005Z,6.00
2022-08-22T03:50:09.342Z,6.13
2022-08-22T03:53:02.340Z,5.77
2022-08-22T03:55:35.982Z,5.83
2022-08-22T03:58:19.183Z,5.80
2022-08-22T04:01:15.937Z,6.30
2022-08-22T04:04:02.906Z,6.30
2022-08-22T04:06:50.938Z,6.13
2022-08-22T04:09:42.883Z,6.63
2022-08-22T04:12:20.374Z,5.47
2022-08-22T04:15:02.926Z,5.93
2022-08-22T04:17:46.003Z,5.93
2022-08-22T04:20:21.788Z,6.60
2022-08-22T04:23:09.967Z,5.50
2022-08-22T04:25:40.291Z,5.73
2022-08-22T04:28:12.758Z,5.30
2022-08-22T04:30:43.255Z,6.10
2022-08-22T04:33:14.505Z,6.00
2022-08-22T04:35:43.917Z,6.03
2022-08-22T04:38:15.585Z,6.87
2022-08-22T04:40:46.662Z,6.37
2022-08-22T04:43:19.147Z,6.40
2022-08-22T04:45:49.634Z,6.70
2022-08-22T04:48:22.080Z,6.90
2022-08-22T04:50:54.637Z,6.80
2022-08-22T04:53:26.643Z,6.77
2022-08-22T04:56:02.963Z,6.70
2022-08-22T04:58:38.862Z,7.30
2022-08-22T05:01:11.609Z,7.57
2022-08-22T05:04:03.243Z,6.90
2022-08-22T05:06:35.188Z,6.70
2022-08-22T05:09:06.464Z,6.47
2022-08-22T05:11:35.818Z,7.30
2022-08-22T05:14:07.047Z,7.40
2022-08-22T05:16:38.070Z,7.17
2022-08-22T05:19:09.103Z,6.90
2022-08-22T05:21:41.093Z,6.87
2022-08-22T05:24:10.897Z,6.60
2022-08-22T05:26:41.516Z,7.00
2022-08-22T05:29:10.579Z,7.17
2022-08-22T05:31:41.408Z,7.13
2022-08-22T05:34:11.939Z,7.10
2022-08-22T05:36:41.811Z,7.63
2022-08-22T05:39:12.493Z,7.20
2022-08-22T05:41:41.951Z,7.20
2022-08-22T05:44:17.563Z,7.10
2022-08-22T05:46:46.974Z,7.37
2022-08-22T05:49:18.957Z,7.27
2022-08-22T05:51:50.657Z,8.53
2022-08-22T05:54:20.005Z,8.00
2022-08-22T05:56:53.493Z,7.83
2022-08-22T05:59:24.562Z,7.33
2022-08-22T06:01:59.784Z,7.50
2022-08-22T06:04:29.833Z,7.30
2022-08-22T06:06:58.078Z,6.83
2022-08-22T06:09:35.335Z,7.73
2022-08-22T06:12:07.272Z,8.03
2022-08-22T06:14:43.103Z,7.90
2022-08-22T06:17:12.485Z,7.57
2022-08-22T06:19:41.196Z,7.43
2022-08-22T06:22:09.577Z,7.00
2022-08-22T06:24:40.916Z,7.10
2022-08-22T06:27:11.303Z,6.80
2022-08-22T06:29:41.710Z,7.03
2022-08-22T06:32:12.955Z,6.50
2022-08-22T06:34:41.841Z,7.20
2022-08-22T06:37:12.433Z,7.27
2022-08-22T06:39:41.963Z,6.47
2022-08-22T06:42:16.517Z,7.10
2022-08-22T06:44:48.228Z,6.00
2022-08-22T06:47:41.432Z,5.07
2022-08-22T06:50:14.380Z,5.17
2022-08-22T06:52:50.215Z,5.03
2022-08-22T06:55:18.247Z,5.90
2022-08-22T06:58:00.122Z,4.90
2022-08-22T07:00:28.257Z,4.57
2022-08-22T07:02:57.646Z,4.63
2022-08-22T07:05:28.160Z,4.30
2022-08-22T07:07:56.430Z,4.60
2022-08-22T07:10:25.341Z,10.10
2022-08-22T07:12:55.631Z,20.43
2022-08-22T07:15:32.655Z,5.60
2022-08-22T07:18:01.706Z,4.67
2022-08-22T07:20:32.031Z,3.73
2022-08-22T07:23:02.199Z,4.17
2022-08-22T07:25:31.659Z,4.23
2022-08-22T07:28:05.452Z,4.30
2022-08-22T07:30:40.957Z,3.93
2022-08-22T07:33:26.742Z,3.77
2022-08-22T07:35:58.343Z,4.90
2022-08-22T07:38:29.683Z,7.00
2022-08-22T07:41:01.523Z,4.90
2022-08-22T07:43:32.247Z,4.83
2022-08-22T07:46:02.391Z,4.27
2022-08-22T07:48:31.424Z,4.70
2022-08-22T07:51:01.526Z,4.53
2022-08-22T07:53:31.104Z,4.60
2022-08-22T07:56:00.119Z,4.30
2022-08-22T07:58:29.597Z,3.97
2022-08-22T08:00:59.123Z,3.53
2022-08-22T08:03:28.217Z,4.33
2022-08-22T08:05:56.527Z,4.00
2022-08-22T08:08:25.738Z,3.10
2022-08-22T08:10:55.192Z,3.00
2022-08-22T08:13:24.685Z,3.17
2022-08-22T08:15:52.341Z,3.73
2022-08-22T08:18:25.918Z,3.20
2022-08-22T08:20:54.802Z,2.87
2022-08-22T08:23:23.817Z,2.60
2022-08-22T08:25:58.874Z,2.40
2022-08-22T08:28:34.756Z,2.83
2022-08-22T08:31:08.725Z,3.37
2022-08-22T08:33:40.411Z,2.40
2022-08-22T08:36:11.730Z,4.67
2022-08-22T08:38:43.130Z,3.10
2022-08-22T08:41:35.266Z,3.50
2022-08-22T08:44:05.702Z,4.10
2022-08-22T08:46:55.272Z,3.07
2022-08-22T08:49:39.650Z,2.53
2022-08-22T08:52:25.700Z,2.80
2022-08-22T08:54:58.844Z,2.57
2022-08-22T08:57:36.357Z,2.93
2022-08-22T09:00:09.195Z,2.50
2022-08-22T09:02:53.303Z,2.73
2022-08-22T09:05:50.428Z,3.27
2022-08-22T09:08:30.944Z,2.60
2022-08-22T09:11:10.005Z,2.73
2022-08-22T09:13:47.014Z,2.83
2022-08-22T09:16:33.201Z,3.23
2022-08-22T09:19:08.958Z,2.50
2022-08-22T09:21:55.522Z,3.43
2022-08-22T09:24:43.707Z,3.63
2022-08-22T09:27:14.423Z,2.90
2022-08-22T09:29:54.466Z,2.70
2022-08-22T09:32:29.300Z,2.50
2022-08-22T09:35:03.298Z,3.13
2022-08-22T09:37:40.237Z,3.00
2022-08-22T09:40:17.259Z,2.90
2022-08-22T09:42:49.626Z,3.13
2022-08-22T09:45:25.171Z,3.53
2022-08-22T09:48:02.257Z,3.87
2022-08-22T09:50:44.051Z,2.60
2022-08-22T09:53:21.380Z,3.40
2022-08-22T09:55:54.144Z,3.40
2022-08-22T09:58:41.536Z,3.23
2022-08-22T10:01:13.514Z,3.10
2022-08-22T10:03:59.940Z,2.40
2022-08-22T10:06:29.456Z,3.00
2022-08-22T10:09:01.862Z,2.40
2022-08-22T10:11:33.663Z,2.53
2022-08-22T10:14:10.171Z,2.90
2022-08-22T10:16:51.860Z,3.00
2022-08-22T10:19:22.817Z,3.27
2022-08-22T10:22:18.333Z,2.50
2022-08-22T10:24:48.925Z,2.90
2022-08-22T10:27:21.729Z,2.50
2022-08-22T10:29:56.178Z,3.17
2022-08-22T10:32:32.036Z,2.70
2022-08-22T10:35:03.761Z,2.30
2022-08-22T10:37:39.599Z,2.30
2022-08-22T10:40:15.255Z,2.43
2022-08-22T10:42:48.076Z,2.70
2022-08-22T10:45:36.696Z,3.50
2022-08-22T10:48:28.402Z,2.80
2022-08-22T10:50:59.126Z,2.60
2022-08-22T10:53:34.726Z,2.30
2022-08-22T10:56:10.146Z,2.60
2022-08-22T10:58:43.026Z,2.37
2022-08-22T11:01:37.877Z,2.63
2022-08-22T11:04:06.202Z,3.07
2022-08-22T11:06:36.499Z,5.93
2022-08-22T11:09:14.739Z,2.40
2022-08-22T11:11:44.779Z,2.10
2022-08-22T11:14:23.970Z,1.87
2022-08-22T11:16:58.011Z,2.60
2022-08-22T11:19:46.540Z,6.83
2022-08-22T11:22:25.749Z,3.60
2022-08-22T11:25:11.232Z,4.73
2022-08-22T11:27:45.833Z,2.27
2022-08-22T11:30:18.395Z,2.13
2022-08-22T11:33:07.905Z,6.23
2022-08-22T11:35:39.312Z,4.00
2022-08-22T11:38:15.430Z,4.40
2022-08-22T11:40:46.468Z,2.07
2022-08-22T11:43:32.493Z,2.20
2022-08-22T11:46:14.910Z,2.97
2022-08-22T11:48:54.220Z,3.70
2022-08-22T11:51:38.806Z,3.27
2022-08-22T11:54:09.962Z,2.80
2022-08-22T11:56:40.128Z,2.60
2022-08-22T11:59:18.107Z,2.00
2022-08-22T12:01:53.516Z,2.60
2022-08-22T12:04:22.348Z,1.80
2022-08-22T12:06:56.183Z,3.67
2022-08-22T12:09:29.884Z,2.73
2022-08-22T12:12:01.239Z,2.80
2022-08-22T12:14:35.657Z,2.47
2022-08-22T12:17:22.783Z,2.97
2022-08-22T12:20:17.429Z,2.80
2022-08-22T12:22:52.925Z,2.27
2022-08-22T12:25:26.021Z,3.50
2022-08-22T12:27:59.187Z,3.63
2022-08-22T12:30:32.281Z,3.43
2022-08-22T12:33:14.829Z,3.00
2022-08-22T12:36:06.431Z,3.50
2022-08-22T12:38:47.137Z,3.10
2022-08-22T12:41:34.923Z,2.40
2022-08-22T12:44:12.563Z,5.00
2022-08-22T12:46:49.342Z,2.73
2022-08-22T12:49:24.507Z,3.67
2022-08-22T12:52:04.471Z,2.50
2022-08-22T12:54:51.146Z,2.50
2022-08-22T12:57:25.830Z,3.67
2022-08-22T12:59:55.387Z,3.00
2022-08-22T13:02:27.447Z,2.30
2022-08-22T13:05:00.665Z,2.70
2022-08-22T13:07:30.231Z,3.50
2022-08-22T13:10:01.055Z,8.77
2022-08-22T13:12:33.262Z,3.60
2022-08-22T13:15:02.944Z,2.00
2022-08-22T13:17:31.332Z,2.20
2022-08-22T13:20:08.616Z,2.80
2022-08-22T13:22:39.344Z,1.80
2022-08-22T13:25:08.968Z,2.43
2022-08-22T13:27:51.246Z,3.20
2022-08-22T13:30:20.671Z,2.70
2022-08-22T13:32:49.871Z,2.40
2022-08-22T13:35:24.662Z,3.63
2022-08-22T13:37:55.387Z,2.50
2022-08-22T13:40:26.686Z,2.27
2022-08-22T13:43:01.992Z,2.40
2022-08-22T13:45:31.155Z,2.90
2022-08-22T13:48:03.720Z,2.80
2022-08-22T13:50:52.950Z,2.43
2022-08-22T13:53:26.132Z,2.87
2022-08-22T13:58:44.594Z,3.37
2022-08-22T14:01:28.601Z,3.00
2022-08-22T14:03:59.563Z,2.90
2022-08-22T14:06:38.087Z,2.70
2022-08-22T15:17:38.013Z,2.80
2022-08-22T15:20:11.862Z,3.00
2022-08-22T15:22:40.646Z,2.97
2022-08-22T15:25:16.773Z,3.67
2022-08-22T15:28:07.790Z,2.80
2022-08-22T15:30:44.800Z,2.60
2022-08-22T15:33:15.243Z,3.53
2022-08-22T15:35:45.298Z,3.10
2022-08-22T15:38:28.902Z,4.10
2022-08-22T15:40:57.667Z,2.20
2022-08-22T15:43:28.906Z,3.87
2022-08-22T15:46:18.147Z,2.90
2022-08-22T15:48:56.969Z,3.20
2022-08-22T15:51:39.580Z,2.73
2022-08-22T15:54:16.117Z,3.43
2022-08-22T15:57:13.871Z,3.63
2022-08-22T15:59:54.013Z,4.30
2022-08-22T16:02:27.028Z,2.77
2022-08-22T16:05:01.275Z,2.83
2022-08-22T16:07:39.709Z,2.30
2022-08-22T16:10:11.217Z,3.50
2022-08-22T16:12:40.703Z,3.03
2022-08-22T16:15:10.464Z,3.43
2022-08-22T16:17:46.760Z,3.47
2022-08-22T16:20:41.250Z,3.60
2022-08-22T16:23:10.671Z,3.10
2022-08-22T16:25:56.959Z,3.17
2022-08-22T16:28:54.359Z,3.10
2022-08-22T16:31:18.916Z,4.00
2022-08-22T16:33:47.054Z,5.73
2022-08-22T16:36:37.884Z,3.90
2022-08-22T16:39:11.774Z,3.10
2022-08-22T16:41:41.485Z,3.63
2022-08-22T16:44:30.541Z,3.57
2022-08-22T16:47:08.229Z,4.23
2022-08-22T16:49:40.190Z,2.70
2022-08-22T16:52:26.599Z,3.00
2022-08-22T16:54:58.791Z,4.90
2022-08-22T16:57:32.933Z,4.07
2022-08-22T17:00:04.892Z,5.30
2022-08-22T17:02:39.259Z,3.43
2022-08-22T17:05:15.324Z,3.20
2022-08-22T17:07:49.729Z,3.07
2022-08-22T17:10:30.558Z,4.10
2022-08-22T17:13:03.855Z,2.70
2022-08-22T17:15:35.137Z,3.20
2022-08-22T17:18:11.970Z,3.83
2022-08-22T17:20:44.848Z,2.97
2022-08-22T17:23:17.536Z,3.70
2022-08-22T17:25:53.830Z,4.27
2022-08-22T17:28:37.191Z,5.37
2022-08-22T17:31:09.462Z,3.80
2022-08-22T17:33:54.134Z,4.00
2022-08-22T17:36:27.204Z,3.30
2022-08-22T17:39:00.122Z,2.77
2022-08-22T17:41:34.822Z,3.63
2022-08-22T17:44:08.761Z,3.17
2022-08-22T17:46:45.858Z,4.30
2022-08-22T17:49:16.591Z,3.67
2022-08-22T17:51:47.234Z,3.70
2022-08-22T17:54:18.884Z,6.10
2022-08-22T17:56:50.136Z,3.17
2022-08-22T17:59:37.830Z,3.33
2022-08-22T18:02:11.340Z,4.10
2022-08-22T18:04:45.650Z,3.67
2022-08-22T18:07:33.072Z,3.20
2022-08-22T18:10:04.935Z,3.17
2022-08-22T18:12:35.988Z,3.93
2022-08-22T18:15:08.294Z,3.77
2022-08-22T18:17:38.606Z,3.70
2022-08-22T18:20:09.309Z,4.10
2022-08-22T18:22:43.211Z,3.60
2022-08-22T18:25:27.126Z,3.77
2022-08-22T18:27:57.798Z,3.80
2022-08-22T18:30:27.815Z,3.27
2022-08-22T18:32:59.762Z,5.73
2022-08-22T18:35:31.235Z,4.10
2022-08-22T18:38:03.843Z,4.30
2022-08-22T18:40:50.878Z,3.83
2022-08-22T18:43:24.788Z,4.60
2022-08-22T18:46:04.517Z,3.60
2022-08-22T18:48:49.553Z,3.80
2022-08-22T18:51:28.605Z,3.90
2022-08-22T18:54:02.744Z,4.40
2022-08-22T18:56:39.589Z,4.00
2022-08-22T18:59:16.967Z,3.73
2022-08-22T19:01:48.369Z,4.10
2022-08-22T19:04:34.810Z,3.90
2022-08-22T19:07:14.657Z,3.80
2022-08-22T19:09:51.052Z,4.03
2022-08-22T19:12:26.189Z,4.77
2022-08-22T19:15:08.440Z,4.67
2022-08-22T19:17:43.200Z,4.57
2022-08-22T19:20:38.846Z,4.70
2022-08-22T19:23:25.346Z,4.90
2022-08-22T19:26:08.670Z,4.10
2022-08-22T19:28:37.932Z,4.87
2022-08-22T19:31:24.360Z,7.30
2022-08-22T19:34:12.440Z,5.50
2022-08-22T19:36:41.084Z,11.00
2022-08-22T19:39:09.620Z,5.67
2022-08-22T19:41:42.940Z,5.20
2022-08-22T19:44:11.449Z,7.00
2022-08-22T19:46:42.255Z,5.17
2022-08-22T19:49:24.940Z,5.50
2022-08-22T19:52:01.789Z,3.80
2022-08-22T19:54:30.643Z,4.40
2022-08-22T19:57:04.361Z,3.80
2022-08-22T19:59:38.711Z,4.47
2022-08-22T20:02:22.370Z,3.90
2022-08-22T20:05:04.646Z,3.70
2022-08-22T20:07:38.513Z,3.57
2022-08-22T20:10:16.646Z,3.50
2022-08-22T20:13:02.033Z,3.83
2022-08-22T20:15:31.757Z,3.83
2022-08-22T20:21:00.717Z,4.30
2022-08-22T20:23:30.488Z,2.90
2022-08-22T20:25:58.944Z,3.30
2022-08-22T20:28:44.262Z,3.47
2022-08-22T20:31:19.221Z,4.73
2022-08-22T20:33:53.665Z,4.60
2022-08-22T20:36:28.500Z,4.00
2022-08-22T20:38:59.448Z,4.13
2022-08-22T20:41:29.415Z,3.50
2022-08-22T20:43:58.903Z,5.60
2022-08-22T20:46:35.057Z,4.63
2022-08-22T20:49:05.404Z,4.00
2022-08-22T20:51:34.136Z,3.40
2022-08-22T20:54:10.248Z,3.40
2022-08-22T20:56:53.249Z,4.67
2022-08-22T20:59:40.020Z,4.03
2022-08-22T21:02:11.700Z,4.63
2022-08-22T21:04:44.202Z,4.50
2022-08-22T21:07:12.137Z,3.93
2022-08-22T21:09:57.579Z,3.70
2022-08-22T21:12:26.590Z,4.40
2022-08-22T21:14:54.263Z,5.33
2022-08-22T21:17:23.829Z,4.10
2022-08-22T21:19:54.354Z,5.40
2022-08-22T21:22:27.861Z,7.40
2022-08-22T21:24:56.484Z,5.60
2022-08-22T21:27:26.656Z,5.07
2022-08-22T21:29:54.843Z,5.20
2022-08-22T21:32:27.632Z,4.60
2022-08-22T21:34:56.764Z,5.33
2022-08-22T21:37:27.677Z,5.43
2022-08-22T21:39:59.434Z,4.40
2022-08-22T21:42:30.398Z,5.40
2022-08-22T21:44:59.528Z,4.63
2022-08-22T21:47:31.468Z,4.27
2022-08-22T21:50:02.486Z,5.40
2022-08-22T21:52:31.345Z,5.53
2022-08-22T21:55:13.063Z,5.30
2022-08-22T21:57:40.977Z,4.83
2022-08-22T22:00:13.830Z,5.70
2022-08-22T22:02:43.689Z,6.10
2022-08-22T22:05:14.298Z,7.37
2022-08-22T22:07:43.132Z,7.70
2022-08-22T22:10:12.447Z,8.60
2022-08-22T22:12:40.891Z,6.83
2022-08-22T22:15:09.597Z,7.13
2022-08-22T22:17:37.350Z,6.13
2022-08-22T22:20:05.620Z,7.90
2022-08-22T22:22:37.035Z,6.20
2022-08-22T22:25:39.825Z,6.80
2022-08-22T22:28:01.144Z,6.20
2022-08-22T22:30:29.132Z,6.50
2022-08-22T22:32:56.870Z,5.83
2022-08-22T22:35:24.603Z,5.80
2022-08-22T22:37:52.508Z,6.20
2022-08-22T22:40:21.962Z,6.30
2022-08-22T22:42:49.910Z,7.00
2022-08-22T22:45:17.830Z,6.20
2022-08-22T22:47:45.601Z,14.33
2022-08-22T22:50:13.293Z,10.77
2022-08-22T22:52:41.492Z,8.50
2022-08-22T22:55:10.123Z,10.97
2022-08-22T22:57:42.447Z,8.50
2022-08-22T23:00:11.908Z,6.17
2022-08-22T23:02:40.088Z,7.87
2022-08-22T23:05:08.889Z,7.57
2022-08-22T23:07:37.710Z,7.43
2022-08-22T23:10:07.013Z,7.20
2022-08-22T23:12:36.073Z,6.40
2022-08-22T23:15:05.971Z,7.80
2022-08-22T23:17:34.019Z,6.57
2022-08-22T23:20:01.674Z,5.90
2022-08-22T23:22:30.211Z,6.00
2022-08-22T23:24:57.969Z,11.40
2022-08-22T23:27:25.676Z,7.33
2022-08-22T23:29:54.096Z,6.23
2022-08-22T23:32:23.255Z,5.90
2022-08-22T23:34:52.692Z,7.80
2022-08-22T23:37:21.876Z,5.00
2022-08-22T23:39:49.947Z,5.60
2022-08-22T23:42:18.082Z,5.87
2022-08-22T23:44:46.350Z,6.87
2022-08-22T23:47:14.916Z,6.20
2022-08-22T23:49:44.319Z,5.70
2022-08-22T23:52:13.697Z,5.87
2022-08-22T23:54:41.952Z,6.87
2022-08-22T23:57:11.631Z,5.90
2022-08-22T23:59:46.403Z,10.67
